NOZ27GE EDDH-ENGM
Flight info
| Callsign | NOZ27GE |
|---|---|
| Flight time | 1h 8m |
| Altitude | 38000 |
| Route | SOKWO1B/23 SOKWO T814 EXNEL M105 AMRAK DCT NERDO DCT PIPEX M609 RIPAM |
| Aircraft | B38M/M-SDE2E3GIJ1LRWXY/LB2 |
Departure
| Time | 2026-05-01 13:37 |
|---|---|
| Airport | Hamburg Helmut Schmidt Airport (EDDH) |
Arrival
| Time | 2026-05-01 14:45 |
|---|---|
| Airport | Oslo-Gardermoen International Airport (ENGM) |
| Time | Latitude | Longitude | Altitude | Speed | Heading |
|---|---|---|---|---|---|
| 2026-05-01 13:07 | 53.62737 | 10.00300 | 51 ft | 0 kts | 62° |
| 2026-05-01 13:28 | 53.62718 | 10.00251 | 49 ft | 4 kts | 50° |
| 2026-05-01 13:28 | 53.62699 | 10.00221 | 51 ft | 4 kts | 26° |
| 2026-05-01 13:29 | 53.62675 | 10.00218 | 51 ft | 1 kts | 333° |
| 2026-05-01 13:33 | 53.62684 | 10.00210 | 48 ft | 6 kts | 333° |
| 2026-05-01 13:33 | 53.62892 | 10.00038 | 51 ft | 18 kts | 348° |
| 2026-05-01 13:34 | 53.63141 | 10.00190 | 51 ft | 20 kts | 355° |
| 2026-05-01 13:34 | 53.63444 | 10.00152 | 51 ft | 21 kts | 356° |
| 2026-05-01 13:35 | 53.63602 | 10.00028 | 54 ft | 11 kts | 316° |
| 2026-05-01 13:35 | 53.63590 | 9.99940 | 54 ft | 0 kts | 229° |
| 2026-05-01 13:36 | 53.63570 | 9.99902 | 51 ft | 20 kts | 229° |
| 2026-05-01 13:36 | 53.63313 | 9.99383 | 49 ft | 93 kts | 230° |
| 2026-05-01 13:36 | 53.62046 | 9.96757 | 260 ft | 173 kts | 233° |
| 2026-05-01 13:37 | 53.61290 | 9.95129 | 893 ft | 182 kts | 227° |
| 2026-05-01 13:37 | 53.60484 | 9.93500 | 1724 ft | 177 kts | 226° |
| 2026-05-01 13:37 | 53.59694 | 9.91917 | 2522 ft | 176 kts | 228° |
| 2026-05-01 13:37 | 53.58911 | 9.90329 | 3314 ft | 180 kts | 226° |
| 2026-05-01 13:38 | 53.57177 | 9.86480 | 4618 ft | 218 kts | 244° |
| 2026-05-01 13:38 | 53.56871 | 9.83957 | 5750 ft | 231 kts | 271° |
| 2026-05-01 13:38 | 53.57384 | 9.81350 | 6668 ft | 245 kts | 298° |
| 2026-05-01 13:39 | 53.58607 | 9.79219 | 7364 ft | 267 kts | 330° |
| 2026-05-01 13:39 | 53.60453 | 9.78460 | 8034 ft | 284 kts | 2° |
| 2026-05-01 13:39 | 53.62483 | 9.78614 | 8798 ft | 299 kts | 1° |
| 2026-05-01 13:39 | 53.64574 | 9.78584 | 9859 ft | 302 kts | 0° |
| 2026-05-01 13:40 | 53.66702 | 9.78541 | 10747 ft | 312 kts | 0° |
| 2026-05-01 13:40 | 53.68936 | 9.78468 | 11316 ft | 329 kts | 359° |
| 2026-05-01 13:40 | 53.71270 | 9.78380 | 12030 ft | 341 kts | 359° |
| 2026-05-01 13:40 | 53.73654 | 9.78298 | 12975 ft | 344 kts | 360° |
| 2026-05-01 13:41 | 53.76065 | 9.78225 | 13869 ft | 349 kts | 360° |
| 2026-05-01 13:41 | 53.78512 | 9.78147 | 14674 ft | 354 kts | 360° |
| 2026-05-01 13:41 | 53.80973 | 9.78073 | 15515 ft | 355 kts | 360° |
| 2026-05-01 13:41 | 53.83442 | 9.77998 | 16323 ft | 358 kts | 359° |
| 2026-05-01 13:42 | 53.85941 | 9.77925 | 17122 ft | 360 kts | 359° |
| 2026-05-01 13:42 | 53.88454 | 9.77850 | 17894 ft | 363 kts | 359° |
| 2026-05-01 13:42 | 53.90991 | 9.77775 | 18627 ft | 366 kts | 359° |
| 2026-05-01 13:42 | 53.93550 | 9.77697 | 19267 ft | 369 kts | 359° |
| 2026-05-01 13:43 | 53.96129 | 9.77622 | 19881 ft | 373 kts | 359° |
| 2026-05-01 13:43 | 53.98735 | 9.77543 | 20482 ft | 376 kts | 359° |
| 2026-05-01 13:43 | 54.01360 | 9.77465 | 21118 ft | 379 kts | 359° |
| 2026-05-01 13:43 | 54.04009 | 9.77389 | 21725 ft | 382 kts | 359° |
| 2026-05-01 13:44 | 54.06681 | 9.77311 | 22293 ft | 387 kts | 359° |
| 2026-05-01 13:44 | 54.09364 | 9.77228 | 22930 ft | 389 kts | 359° |
| 2026-05-01 13:44 | 54.12082 | 9.77149 | 23561 ft | 392 kts | 359° |
| 2026-05-01 13:44 | 54.14824 | 9.77068 | 24071 ft | 396 kts | 359° |
| 2026-05-01 13:45 | 54.17589 | 9.76984 | 24586 ft | 399 kts | 359° |
| 2026-05-01 13:45 | 54.20371 | 9.76902 | 25119 ft | 401 kts | 359° |
| 2026-05-01 13:45 | 54.23167 | 9.76821 | 25585 ft | 404 kts | 359° |
| 2026-05-01 13:45 | 54.25991 | 9.76734 | 26083 ft | 406 kts | 359° |
| 2026-05-01 13:46 | 54.28783 | 9.76652 | 26586 ft | 408 kts | 359° |
| 2026-05-01 13:46 | 54.31640 | 9.76568 | 27045 ft | 412 kts | 359° |
| 2026-05-01 13:46 | 54.34505 | 9.76482 | 27421 ft | 416 kts | 359° |
| 2026-05-01 13:46 | 54.37394 | 9.76396 | 28009 ft | 415 kts | 359° |
| 2026-05-01 13:47 | 54.40296 | 9.76311 | 28431 ft | 419 kts | 359° |
| 2026-05-01 13:47 | 54.43223 | 9.76223 | 28885 ft | 421 kts | 359° |
| 2026-05-01 13:47 | 54.46158 | 9.76136 | 29345 ft | 423 kts | 359° |
| 2026-05-01 13:47 | 54.49118 | 9.76050 | 29758 ft | 426 kts | 359° |
| 2026-05-01 13:48 | 54.52093 | 9.75959 | 30186 ft | 429 kts | 359° |
| 2026-05-01 13:48 | 54.55083 | 9.75870 | 30600 ft | 431 kts | 360° |
| 2026-05-01 13:48 | 54.58070 | 9.75782 | 30923 ft | 434 kts | 360° |
| 2026-05-01 13:48 | 54.61101 | 9.75693 | 31272 ft | 436 kts | 359° |
| 2026-05-01 13:49 | 54.64141 | 9.75602 | 31644 ft | 438 kts | 359° |
| 2026-05-01 13:49 | 54.67193 | 9.75511 | 31949 ft | 441 kts | 359° |
| 2026-05-01 13:49 | 54.70271 | 9.75420 | 32292 ft | 443 kts | 359° |
| 2026-05-01 13:49 | 54.73354 | 9.75327 | 32637 ft | 444 kts | 359° |
| 2026-05-01 13:50 | 54.76455 | 9.75234 | 32930 ft | 448 kts | 359° |
| 2026-05-01 13:50 | 54.79576 | 9.75141 | 33264 ft | 449 kts | 359° |
| 2026-05-01 13:50 | 54.82690 | 9.74953 | 33604 ft | 451 kts | 354° |
| 2026-05-01 13:50 | 54.85823 | 9.74382 | 33903 ft | 454 kts | 354° |
| 2026-05-01 13:51 | 54.88974 | 9.73844 | 34267 ft | 455 kts | 354° |
| 2026-05-01 13:51 | 54.92122 | 9.73333 | 34691 ft | 454 kts | 354° |
| 2026-05-01 13:51 | 54.95267 | 9.72833 | 35051 ft | 453 kts | 354° |
| 2026-05-01 13:51 | 54.98405 | 9.72337 | 35449 ft | 452 kts | 354° |
| 2026-05-01 13:52 | 55.01525 | 9.71844 | 35857 ft | 449 kts | 354° |
| 2026-05-01 13:52 | 55.04636 | 9.71350 | 36199 ft | 449 kts | 354° |
| 2026-05-01 13:52 | 55.07731 | 9.70860 | 36549 ft | 448 kts | 354° |
| 2026-05-01 13:52 | 55.10830 | 9.70369 | 36899 ft | 446 kts | 354° |
| 2026-05-01 13:53 | 55.13924 | 9.69876 | 37247 ft | 445 kts | 354° |
| 2026-05-01 13:53 | 55.20067 | 9.68897 | 37953 ft | 442 kts | 353° |
| 2026-05-01 13:53 | 55.23122 | 9.68409 | 38267 ft | 441 kts | 353° |
| 2026-05-01 13:54 | 55.26185 | 9.67918 | 38390 ft | 442 kts | 353° |
| 2026-05-01 13:54 | 55.29242 | 9.67428 | 38342 ft | 440 kts | 353° |
| 2026-05-01 13:54 | 55.35264 | 9.66461 | 38357 ft | 439 kts | 353° |
| 2026-05-01 13:55 | 55.41343 | 9.65481 | 38353 ft | 439 kts | 353° |
| 2026-05-01 13:55 | 55.47433 | 9.64496 | 38353 ft | 444 kts | 354° |
| 2026-05-01 13:56 | 55.53597 | 9.63497 | 38350 ft | 444 kts | 353° |
| 2026-05-01 13:56 | 55.59741 | 9.62497 | 38345 ft | 445 kts | 353° |
| 2026-05-01 13:57 | 55.64860 | 9.61662 | 38330 ft | 444 kts | 353° |
| 2026-05-01 13:57 | 55.72060 | 9.60484 | 38333 ft | 444 kts | 353° |
| 2026-05-01 13:58 | 55.78214 | 9.59473 | 38336 ft | 444 kts | 353° |
| 2026-05-01 13:58 | 55.84360 | 9.58460 | 38341 ft | 445 kts | 353° |
| 2026-05-01 13:59 | 55.90523 | 9.57442 | 38342 ft | 444 kts | 353° |
| 2026-05-01 13:59 | 55.96685 | 9.56420 | 38332 ft | 445 kts | 353° |
| 2026-05-01 14:00 | 56.02840 | 9.55397 | 38331 ft | 444 kts | 353° |
| 2026-05-01 14:00 | 56.08982 | 9.54371 | 38325 ft | 444 kts | 353° |
| 2026-05-01 14:01 | 56.15138 | 9.53341 | 38319 ft | 445 kts | 353° |
| 2026-05-01 14:01 | 56.21296 | 9.52307 | 38322 ft | 444 kts | 353° |
| 2026-05-01 14:02 | 56.27452 | 9.51270 | 38315 ft | 445 kts | 353° |
| 2026-05-01 14:02 | 56.33553 | 9.50239 | 38327 ft | 445 kts | 353° |
| 2026-05-01 14:03 | 56.39713 | 9.49194 | 38322 ft | 444 kts | 353° |
| 2026-05-01 14:03 | 56.45872 | 9.48145 | 38326 ft | 444 kts | 353° |
| 2026-05-01 14:04 | 56.52028 | 9.47095 | 38318 ft | 445 kts | 352° |
| 2026-05-01 14:04 | 56.57141 | 9.46220 | 38314 ft | 445 kts | 352° |
| 2026-05-01 14:05 | 56.64346 | 9.44983 | 38317 ft | 445 kts | 352° |
| 2026-05-01 14:05 | 56.70510 | 9.43920 | 38318 ft | 445 kts | 352° |
| 2026-05-01 14:06 | 56.76677 | 9.42854 | 38325 ft | 445 kts | 352° |
| 2026-05-01 14:06 | 56.82830 | 9.41786 | 38316 ft | 445 kts | 352° |
| 2026-05-01 14:07 | 56.89000 | 9.40711 | 38316 ft | 446 kts | 352° |
| 2026-05-01 14:08 | 56.97235 | 9.39273 | 38313 ft | 447 kts | 352° |
| 2026-05-01 14:08 | 57.03433 | 9.38185 | 38337 ft | 447 kts | 351° |
| 2026-05-01 14:09 | 57.09619 | 9.37096 | 38317 ft | 447 kts | 351° |
| 2026-05-01 14:09 | 57.15813 | 9.36002 | 38315 ft | 447 kts | 351° |
| 2026-05-01 14:10 | 57.22016 | 9.34902 | 38317 ft | 448 kts | 351° |
| 2026-05-01 14:10 | 57.28213 | 9.33801 | 38316 ft | 447 kts | 351° |
| 2026-05-01 14:11 | 57.34395 | 9.32699 | 38323 ft | 448 kts | 351° |
| 2026-05-01 14:11 | 57.43698 | 9.31032 | 38314 ft | 448 kts | 351° |
| 2026-05-01 14:12 | 57.49898 | 9.29916 | 38310 ft | 448 kts | 351° |
| 2026-05-01 14:12 | 57.56098 | 9.28797 | 38313 ft | 448 kts | 351° |
| 2026-05-01 14:13 | 57.62276 | 9.27677 | 38310 ft | 447 kts | 350° |
| 2026-05-01 14:13 | 57.68427 | 9.26560 | 38306 ft | 447 kts | 350° |
| 2026-05-01 14:14 | 57.74647 | 9.26954 | 38299 ft | 455 kts | 11° |
| 2026-05-01 14:14 | 57.79915 | 9.30395 | 38292 ft | 460 kts | 15° |
| 2026-05-01 14:15 | 57.85970 | 9.34177 | 38319 ft | 460 kts | 14° |
| 2026-05-01 14:15 | 57.92051 | 9.37940 | 38299 ft | 460 kts | 14° |
| 2026-05-01 14:16 | 57.98136 | 9.41714 | 38302 ft | 460 kts | 14° |
| 2026-05-01 14:16 | 58.04216 | 9.45500 | 38289 ft | 460 kts | 14° |
| 2026-05-01 14:17 | 58.10277 | 9.49287 | 38289 ft | 460 kts | 14° |
| 2026-05-01 14:17 | 58.16360 | 9.53101 | 38285 ft | 461 kts | 14° |
| 2026-05-01 14:18 | 58.22446 | 9.56931 | 38283 ft | 461 kts | 14° |
| 2026-05-01 14:18 | 58.27504 | 9.60125 | 38281 ft | 461 kts | 14° |
| 2026-05-01 14:19 | 58.34569 | 9.64602 | 38262 ft | 461 kts | 14° |
| 2026-05-01 14:19 | 58.40695 | 9.68498 | 38263 ft | 461 kts | 14° |
| 2026-05-01 14:20 | 58.49821 | 9.74332 | 38254 ft | 461 kts | 14° |
| 2026-05-01 14:21 | 58.55887 | 9.78225 | 38255 ft | 461 kts | 14° |
| 2026-05-01 14:21 | 58.61929 | 9.82119 | 38253 ft | 461 kts | 14° |
| 2026-05-01 14:22 | 58.67995 | 9.86043 | 38069 ft | 456 kts | 14° |
| 2026-05-01 14:22 | 58.70990 | 9.87987 | 37457 ft | 454 kts | 14° |
| 2026-05-01 14:22 | 58.73986 | 9.89932 | 36683 ft | 455 kts | 14° |
| 2026-05-01 14:22 | 58.76984 | 9.91882 | 35903 ft | 458 kts | 14° |
| 2026-05-01 14:23 | 58.80007 | 9.93852 | 35170 ft | 459 kts | 14° |
| 2026-05-01 14:23 | 58.83076 | 9.95855 | 34463 ft | 460 kts | 14° |
| 2026-05-01 14:23 | 58.86117 | 9.97844 | 33655 ft | 462 kts | 14° |
| 2026-05-01 14:23 | 58.89168 | 9.99842 | 32809 ft | 464 kts | 15° |
| 2026-05-01 14:24 | 58.92188 | 10.01824 | 32048 ft | 465 kts | 15° |
| 2026-05-01 14:24 | 58.95252 | 10.03839 | 31301 ft | 466 kts | 15° |
| 2026-05-01 14:24 | 58.98323 | 10.05863 | 30488 ft | 468 kts | 15° |
| 2026-05-01 14:24 | 59.01391 | 10.07887 | 29669 ft | 468 kts | 15° |
| 2026-05-01 14:25 | 59.04462 | 10.09919 | 29058 ft | 463 kts | 15° |
| 2026-05-01 14:25 | 59.07488 | 10.11928 | 28464 ft | 458 kts | 15° |
| 2026-05-01 14:25 | 59.10498 | 10.13927 | 27856 ft | 455 kts | 15° |
| 2026-05-01 14:25 | 59.13475 | 10.15910 | 27248 ft | 452 kts | 15° |
| 2026-05-01 14:26 | 59.16443 | 10.17890 | 26649 ft | 449 kts | 14° |
| 2026-05-01 14:26 | 59.22317 | 10.21811 | 25451 ft | 444 kts | 14° |
| 2026-05-01 14:26 | 59.25217 | 10.23759 | 24892 ft | 442 kts | 14° |
| 2026-05-01 14:27 | 59.28121 | 10.25712 | 24301 ft | 441 kts | 14° |
| 2026-05-01 14:27 | 59.31018 | 10.27662 | 23702 ft | 440 kts | 14° |
| 2026-05-01 14:27 | 59.33902 | 10.29608 | 23037 ft | 438 kts | 14° |
| 2026-05-01 14:28 | 59.39624 | 10.33474 | 21884 ft | 432 kts | 14° |
| 2026-05-01 14:28 | 59.42458 | 10.35394 | 21318 ft | 429 kts | 14° |
| 2026-05-01 14:28 | 59.45268 | 10.37303 | 20768 ft | 426 kts | 14° |
| 2026-05-01 14:28 | 59.48053 | 10.39198 | 20256 ft | 424 kts | 14° |
| 2026-05-01 14:29 | 59.50832 | 10.41091 | 19697 ft | 423 kts | 14° |
| 2026-05-01 14:29 | 59.53605 | 10.42984 | 19198 ft | 420 kts | 14° |
| 2026-05-01 14:30 | 59.61821 | 10.48608 | 17554 ft | 414 kts | 13° |
| 2026-05-01 14:30 | 59.64496 | 10.50449 | 17056 ft | 411 kts | 13° |
| 2026-05-01 14:30 | 59.67147 | 10.52280 | 16957 ft | 397 kts | 13° |
| 2026-05-01 14:31 | 59.72270 | 10.55814 | 16320 ft | 394 kts | 13° |
| 2026-05-01 14:31 | 59.74875 | 10.57615 | 15792 ft | 398 kts | 13° |
| 2026-05-01 14:31 | 59.77495 | 10.59430 | 15414 ft | 400 kts | 13° |
| 2026-05-01 14:31 | 59.80115 | 10.61248 | 15015 ft | 398 kts | 13° |
| 2026-05-01 14:32 | 59.82728 | 10.63064 | 14558 ft | 397 kts | 13° |
| 2026-05-01 14:32 | 59.85330 | 10.64879 | 14117 ft | 395 kts | 13° |
| 2026-05-01 14:32 | 59.87922 | 10.66687 | 13597 ft | 394 kts | 14° |
| 2026-05-01 14:32 | 59.90495 | 10.68484 | 13121 ft | 391 kts | 14° |
| 2026-05-01 14:33 | 59.93046 | 10.70269 | 12676 ft | 387 kts | 14° |
| 2026-05-01 14:33 | 59.95558 | 10.72030 | 12236 ft | 383 kts | 14° |
| 2026-05-01 14:33 | 59.98067 | 10.73792 | 11783 ft | 380 kts | 14° |
| 2026-05-01 14:33 | 60.00560 | 10.75544 | 11353 ft | 379 kts | 14° |
| 2026-05-01 14:34 | 60.03033 | 10.77290 | 10948 ft | 376 kts | 14° |
| 2026-05-01 14:34 | 60.05501 | 10.79031 | 10460 ft | 375 kts | 14° |
| 2026-05-01 14:34 | 60.07953 | 10.80761 | 10013 ft | 372 kts | 14° |
| 2026-05-01 14:34 | 60.10385 | 10.82482 | 9541 ft | 369 kts | 14° |
| 2026-05-01 14:35 | 60.12789 | 10.84187 | 9092 ft | 365 kts | 14° |
| 2026-05-01 14:35 | 60.15174 | 10.85880 | 8651 ft | 362 kts | 14° |
| 2026-05-01 14:35 | 60.17536 | 10.87559 | 8228 ft | 359 kts | 14° |
| 2026-05-01 14:35 | 60.19863 | 10.89215 | 7764 ft | 355 kts | 15° |
| 2026-05-01 14:36 | 60.22184 | 10.90871 | 7324 ft | 351 kts | 15° |
| 2026-05-01 14:36 | 60.24450 | 10.92491 | 7126 ft | 340 kts | 15° |
| 2026-05-01 14:36 | 60.26638 | 10.94057 | 6985 ft | 328 kts | 14° |
| 2026-05-01 14:36 | 60.28749 | 10.95572 | 6836 ft | 317 kts | 14° |
| 2026-05-01 14:37 | 60.30797 | 10.97038 | 6677 ft | 308 kts | 15° |
| 2026-05-01 14:37 | 60.32794 | 10.98466 | 6321 ft | 301 kts | 16° |
| 2026-05-01 14:37 | 60.34712 | 10.99852 | 6151 ft | 284 kts | 16° |
| 2026-05-01 14:37 | 60.36510 | 11.01147 | 6015 ft | 273 kts | 15° |
| 2026-05-01 14:38 | 60.38272 | 11.02411 | 5876 ft | 264 kts | 17° |
| 2026-05-01 14:38 | 60.39973 | 11.03644 | 5686 ft | 256 kts | 17° |
| 2026-05-01 14:38 | 60.41491 | 11.05372 | 5547 ft | 252 kts | 40° |
| 2026-05-01 14:38 | 60.42521 | 11.08161 | 5397 ft | 246 kts | 66° |
| 2026-05-01 14:39 | 60.42958 | 11.11427 | 5343 ft | 236 kts | 82° |
| 2026-05-01 14:39 | 60.43012 | 11.14706 | 5211 ft | 233 kts | 106° |
| 2026-05-01 14:39 | 60.42358 | 11.17616 | 5046 ft | 226 kts | 130° |
| 2026-05-01 14:39 | 60.41432 | 11.20116 | 5045 ft | 215 kts | 132° |
| 2026-05-01 14:40 | 60.40411 | 11.22141 | 4888 ft | 201 kts | 157° |
| 2026-05-01 14:40 | 60.39124 | 11.22761 | 4608 ft | 183 kts | 189° |
| 2026-05-01 14:40 | 60.37902 | 11.22360 | 4363 ft | 175 kts | 197° |
| 2026-05-01 14:40 | 60.36740 | 11.21791 | 4132 ft | 170 kts | 198° |
| 2026-05-01 14:41 | 60.35595 | 11.21183 | 3880 ft | 170 kts | 199° |
| 2026-05-01 14:41 | 60.34456 | 11.20542 | 3667 ft | 170 kts | 200° |
| 2026-05-01 14:41 | 60.33306 | 11.19885 | 3408 ft | 173 kts | 199° |
| 2026-05-01 14:41 | 60.32153 | 11.19228 | 3215 ft | 172 kts | 200° |
| 2026-05-01 14:42 | 60.31002 | 11.18550 | 2964 ft | 169 kts | 199° |
| 2026-05-01 14:42 | 60.29889 | 11.17905 | 2711 ft | 164 kts | 199° |
| 2026-05-01 14:42 | 60.28830 | 11.17296 | 2525 ft | 151 kts | 199° |
| 2026-05-01 14:42 | 60.27866 | 11.16736 | 2337 ft | 137 kts | 198° |
| 2026-05-01 14:43 | 60.26964 | 11.16212 | 2137 ft | 133 kts | 198° |
| 2026-05-01 14:43 | 60.26077 | 11.15699 | 1939 ft | 132 kts | 197° |
| 2026-05-01 14:43 | 60.25218 | 11.15200 | 1724 ft | 129 kts | 197° |
| 2026-05-01 14:43 | 60.24357 | 11.14734 | 1584 ft | 128 kts | 198° |
| 2026-05-01 14:44 | 60.23508 | 11.14259 | 1426 ft | 122 kts | 200° |
| 2026-05-01 14:44 | 60.21798 | 11.13220 | 1073 ft | 134 kts | 197° |
| 2026-05-01 14:44 | 60.20888 | 11.12703 | 883 ft | 140 kts | 199° |
| 2026-05-01 14:45 | 60.19956 | 11.12165 | 716 ft | 139 kts | 199° |
| 2026-05-01 14:45 | 60.18710 | 11.11433 | 689 ft | 46 kts | 196° |
| 2026-05-01 14:45 | 60.18482 | 11.11235 | 692 ft | 25 kts | 218° |
| 2026-05-01 14:46 | 60.18441 | 11.11008 | 689 ft | 16 kts | 284° |
| 2026-05-01 14:46 | 60.18557 | 11.10783 | 689 ft | 14 kts | 16° |
| 2026-05-01 14:46 | 60.18648 | 11.10835 | 692 ft | 14 kts | 15° |
| 2026-05-01 14:47 | 60.18751 | 11.10893 | 692 ft | 17 kts | 15° |
| 2026-05-01 14:47 | 60.18870 | 11.10963 | 690 ft | 19 kts | 16° |
| 2026-05-01 14:47 | 60.19005 | 11.11041 | 687 ft | 21 kts | 16° |
| 2026-05-01 14:48 | 60.19202 | 11.10861 | 686 ft | 20 kts | 285° |
| 2026-05-01 14:48 | 60.19236 | 11.10629 | 686 ft | 16 kts | 287° |
| 2026-05-01 14:48 | 60.19292 | 11.10491 | 687 ft | 3 kts | 16° |
| 2026-05-01 14:49 | 60.19306 | 11.10499 | 694 ft | 0 kts | 17° |